createdAt,value
2018-09-24T00:00:26.360Z,8.02
2018-09-24T00:01:34.999Z,8.03
2018-09-24T00:02:43.904Z,8.01
2018-09-24T00:03:52.805Z,7.96
2018-09-24T00:05:01.443Z,7.9
2018-09-24T00:06:10.081Z,7.93
2018-09-24T00:07:18.719Z,7.85
2018-09-24T00:08:27.618Z,7.85
2018-09-24T00:09:36.257Z,7.9
2018-09-24T00:10:44.900Z,7.81
2018-09-24T00:11:53.542Z,7.88
2018-09-24T00:13:02.439Z,7.81
2018-09-24T00:14:11.077Z,7.85
2018-09-24T00:15:19.714Z,7.7
2018-09-24T00:16:28.356Z,7.7
2018-09-24T00:17:36.991Z,7.74
2018-09-24T00:18:46.159Z,7.75
2018-09-24T00:19:54.804Z,7.77
2018-09-24T00:21:03.974Z,7.77
2018-09-24T00:22:12.608Z,7.69
2018-09-24T00:23:21.513Z,7.77
2018-09-24T00:24:30.423Z,7.74
2018-09-24T00:25:39.066Z,7.67
2018-09-24T00:26:47.705Z,7.75
2018-09-24T00:27:56.345Z,7.66
2018-09-24T00:29:05.245Z,7.74
2018-09-24T00:30:13.887Z,7.7
2018-09-24T00:31:22.796Z,7.59
2018-09-24T00:32:31.429Z,7.67
2018-09-24T00:33:40.072Z,7.64
2018-09-24T00:34:48.699Z,7.55
2018-09-24T00:35:57.348Z,7.61
2018-09-24T00:37:05.988Z,7.58
2018-09-24T00:38:14.633Z,7.51
2018-09-24T00:39:23.525Z,7.58
2018-09-24T00:40:32.175Z,7.44
2018-09-24T00:41:40.812Z,7.46
2018-09-24T00:42:49.452Z,7.46
2018-09-24T00:43:58.080Z,7.46
2018-09-24T00:45:06.724Z,7.61
2018-09-24T00:46:15.366Z,7.58
2018-09-24T00:47:24.005Z,7.41
2018-09-24T00:48:32.647Z,7.41
2018-09-24T00:49:41.275Z,7.59
2018-09-24T00:50:49.912Z,7.41
2018-09-24T00:51:58.549Z,7.5
2018-09-24T00:53:07.466Z,7.47
2018-09-24T00:54:16.091Z,7.47
2018-09-24T00:55:24.734Z,7.43
2018-09-24T00:56:33.628Z,7.5
2018-09-24T00:57:42.551Z,7.4
2018-09-24T00:58:51.177Z,7.43
2018-09-24T00:59:59.815Z,7.4
2018-09-24T01:01:08.455Z,7.46
2018-09-24T01:02:17.107Z,7.39
2018-09-24T01:03:25.744Z,7.37
2018-09-24T01:04:34.377Z,7.39
2018-09-24T01:05:43.280Z,7.48
2018-09-24T01:06:51.917Z,7.41
2018-09-24T01:08:00.565Z,7.37
2018-09-24T01:09:09.200Z,7.39
2018-09-24T01:10:17.842Z,7.37
2018-09-24T01:11:26.470Z,7.37
2018-09-24T01:12:35.128Z,7.37
2018-09-24T01:13:44.023Z,7.28
2018-09-24T01:14:52.665Z,7.32
2018-09-24T01:16:01.295Z,7.28
2018-09-24T01:17:09.943Z,7.19
2018-09-24T01:18:18.582Z,7.25
2018-09-24T01:19:27.218Z,7.25
2018-09-24T01:20:35.849Z,7.23
2018-09-24T01:21:44.490Z,7.25
2018-09-24T01:22:53.132Z,7.23
2018-09-24T01:24:01.773Z,7.18
2018-09-24T01:25:10.679Z,7.18
2018-09-24T01:26:19.305Z,7.18
2018-09-24T01:27:27.947Z,7.18
2018-09-24T01:28:36.579Z,7.15
2018-09-24T01:29:45.759Z,7.23
2018-09-24T01:30:54.396Z,7.08
2018-09-24T01:32:03.032Z,7.1
2018-09-24T01:33:11.676Z,7.08
2018-09-24T01:34:20.569Z,7.1
2018-09-24T01:35:29.217Z,7.13
2018-09-24T01:36:37.856Z,7.15
2018-09-24T01:37:46.753Z,7.19
2018-09-24T01:38:55.383Z,7.18
2018-09-24T01:40:04.026Z,7.23
2018-09-24T01:41:12.667Z,7.25
2018-09-24T01:42:21.307Z,7.21
2018-09-24T01:43:29.947Z,7.23
2018-09-24T01:44:38.576Z,7.22
2018-09-24T01:45:47.225Z,7.21
2018-09-24T01:46:55.857Z,7.26
2018-09-24T01:48:04.503Z,7.29
2018-09-24T01:49:13.131Z,7.15
2018-09-24T01:50:21.773Z,7.11
2018-09-24T01:51:30.412Z,7.18
2018-09-24T01:52:39.320Z,7.13
2018-09-24T01:53:47.948Z,7.15
2018-09-24T01:54:56.587Z,7.08
2018-09-24T01:56:05.487Z,7.21
2018-09-24T01:57:14.132Z,7.14
2018-09-24T01:58:22.769Z,7.14
2018-09-24T01:59:31.428Z,7.08
2018-09-24T02:00:40.039Z,7.14
2018-09-24T02:01:48.674Z,7.11
2018-09-24T02:02:57.599Z,7.14
2018-09-24T02:04:06.231Z,7.07
2018-09-24T02:05:15.141Z,7.1
2018-09-24T02:06:23.770Z,7
2018-09-24T02:07:32.418Z,7.05
2018-09-24T02:08:41.055Z,7.03
2018-09-24T02:09:49.957Z,7.07
2018-09-24T02:10:58.587Z,7.07
2018-09-24T02:12:07.231Z,7.01
2018-09-24T02:13:15.866Z,7.04
2018-09-24T02:14:24.769Z,7.01
2018-09-24T02:15:33.397Z,6.9
2018-09-24T02:16:42.298Z,7.03
2018-09-24T02:17:50.939Z,7.04
2018-09-24T02:18:59.626Z,6.97
2018-09-24T02:20:08.222Z,7.01
2018-09-24T02:21:16.852Z,6.9
2018-09-24T02:22:25.776Z,6.86
2018-09-24T02:23:34.412Z,6.92
2018-09-24T02:24:43.328Z,6.93
2018-09-24T02:25:51.958Z,6.9
2018-09-24T02:27:00.600Z,6.9
2018-09-24T02:28:09.235Z,6.83
2018-09-24T02:29:17.879Z,6.89
2018-09-24T02:30:26.526Z,6.85
2018-09-24T02:31:35.466Z,6.85
2018-09-24T02:32:44.110Z,6.82
2018-09-24T02:33:53.012Z,6.78
2018-09-24T02:35:01.654Z,6.83
2018-09-24T02:36:10.555Z,6.74
2018-09-24T02:37:19.190Z,6.82
2018-09-24T02:38:27.824Z,6.8
2018-09-24T02:39:36.470Z,6.8
2018-09-24T02:40:45.381Z,6.77
2018-09-24T02:41:54.554Z,6.8
2018-09-24T02:43:03.724Z,6.82
2018-09-24T02:44:12.375Z,6.92
2018-09-24T02:45:21.017Z,6.83
2018-09-24T02:46:29.658Z,6.74
2018-09-24T02:47:38.293Z,6.83
2018-09-24T02:48:46.935Z,6.75
2018-09-24T02:49:55.575Z,6.75
2018-09-24T02:51:04.216Z,6.82
2018-09-24T02:52:12.849Z,6.83
2018-09-24T02:53:21.491Z,6.78
2018-09-24T02:54:30.126Z,6.82
2018-09-24T02:55:39.036Z,6.74
2018-09-24T02:56:47.678Z,6.75
2018-09-24T02:57:56.571Z,6.7
2018-09-24T02:59:05.208Z,6.75
2018-09-24T03:00:14.108Z,6.65
2018-09-24T03:01:22.799Z,6.67
2018-09-24T03:02:31.384Z,6.72
2018-09-24T03:03:40.020Z,6.6
2018-09-24T03:04:48.659Z,6.6
2018-09-24T03:05:57.303Z,6.71
2018-09-24T03:07:06.212Z,6.62
2018-09-24T03:08:15.133Z,6.74
2018-09-24T03:09:23.766Z,6.68
2018-09-24T03:10:32.403Z,6.62
2018-09-24T03:11:41.041Z,6.6
2018-09-24T03:12:49.963Z,6.64
2018-09-24T03:13:58.606Z,6.64
2018-09-24T03:15:07.243Z,6.62
2018-09-24T03:16:15.887Z,6.57
2018-09-24T03:17:24.526Z,6.6
2018-09-24T03:18:33.167Z,6.62
2018-09-24T03:19:41.800Z,6.57
2018-09-24T03:20:50.445Z,6.65
2018-09-24T03:21:59.085Z,6.65
2018-09-24T03:23:07.723Z,6.56
2018-09-24T03:24:16.362Z,6.67
2018-09-24T03:25:25.302Z,6.59
2018-09-24T03:26:33.938Z,6.6
2018-09-24T03:27:42.575Z,6.56
2018-09-24T03:28:51.225Z,6.52
2018-09-24T03:29:59.861Z,6.56
2018-09-24T03:31:08.497Z,6.53
2018-09-24T03:32:17.399Z,6.54
2018-09-24T03:33:26.300Z,6.64
2018-09-24T03:34:34.945Z,6.53
2018-09-24T03:35:43.581Z,6.53
2018-09-24T03:36:52.229Z,6.52
2018-09-24T03:38:00.858Z,6.56
2018-09-24T03:39:09.507Z,6.52
2018-09-24T03:40:18.139Z,6.54
2018-09-24T03:41:26.781Z,6.54
2018-09-24T03:42:35.675Z,6.47
2018-09-24T03:43:44.325Z,6.56
2018-09-24T03:44:52.962Z,6.56
2018-09-24T03:46:01.611Z,6.57
2018-09-24T03:47:10.247Z,6.56
2018-09-24T03:48:18.887Z,6.49
2018-09-24T03:49:27.535Z,6.47
2018-09-24T03:50:36.171Z,6.41
2018-09-24T03:51:44.823Z,6.44
2018-09-24T03:52:53.448Z,6.43
2018-09-24T03:54:02.091Z,6.47
2018-09-24T03:55:10.728Z,6.47
2018-09-24T03:56:19.373Z,6.54
2018-09-24T03:57:28.005Z,6.56
2018-09-24T03:58:36.646Z,6.52
2018-09-24T03:59:45.278Z,6.54
2018-09-24T04:00:54.195Z,6.53
2018-09-24T04:02:02.825Z,6.47
2018-09-24T04:03:11.468Z,6.54
2018-09-24T04:04:20.104Z,6.53
2018-09-24T04:05:28.753Z,6.54
2018-09-24T04:06:37.389Z,6.6
2018-09-24T04:07:46.293Z,6.47
2018-09-24T04:08:54.926Z,6.54
2018-09-24T04:10:03.835Z,6.54
2018-09-24T04:11:13.384Z,6.5
2018-09-24T04:12:22.283Z,6.44
2018-09-24T04:13:31.199Z,6.44
2018-09-24T04:14:40.113Z,6.5
2018-09-24T04:15:48.750Z,6.44
2018-09-24T04:16:57.387Z,6.41
2018-09-24T04:18:06.560Z,6.43
2018-09-24T04:19:15.450Z,6.49
2018-09-24T04:20:24.099Z,6.46
2018-09-24T04:21:32.735Z,6.38
2018-09-24T04:22:41.639Z,6.41
2018-09-24T04:23:50.559Z,6.41
2018-09-24T04:24:59.199Z,6.43
2018-09-24T04:26:07.874Z,6.43
2018-09-24T04:27:16.782Z,6.46
2018-09-24T04:28:25.426Z,6.39
2018-09-24T04:29:34.342Z,6.29
2018-09-24T04:30:42.980Z,6.34
2018-09-24T04:31:51.617Z,6.44
2018-09-24T04:33:00.265Z,6.39
2018-09-24T04:34:09.161Z,6.34
2018-09-24T04:35:18.075Z,6.35
2018-09-24T04:36:26.713Z,6.29
2018-09-24T04:37:35.618Z,6.38
2018-09-24T04:38:44.249Z,6.34
2018-09-24T04:39:52.883Z,6.32
2018-09-24T04:41:01.526Z,6.25
2018-09-24T04:42:10.426Z,6.26
2018-09-24T04:43:19.063Z,6.25
2018-09-24T04:44:27.963Z,6.25
2018-09-24T04:45:36.600Z,6.26
2018-09-24T04:46:45.505Z,6.25
2018-09-24T04:47:54.148Z,6.31
2018-09-24T04:49:02.831Z,6.25
2018-09-24T04:50:11.754Z,6.29
2018-09-24T04:51:20.388Z,6.25
2018-09-24T04:52:29.296Z,6.32
2018-09-24T04:53:37.935Z,6.32
2018-09-24T04:54:46.839Z,6.28
2018-09-24T04:55:55.737Z,6.2
2018-09-24T04:57:04.652Z,6.31
2018-09-24T04:58:13.290Z,6.17
2018-09-24T04:59:22.466Z,6.32
2018-09-24T05:00:31.098Z,6.26
2018-09-24T05:01:40.010Z,6.17
2018-09-24T05:02:48.647Z,6.22
2018-09-24T05:03:57.289Z,6.2
2018-09-24T05:05:05.929Z,6.25
2018-09-24T05:06:14.824Z,6.29
2018-09-24T05:07:23.461Z,6.32
2018-09-24T05:08:32.363Z,6.29
2018-09-24T05:09:41.009Z,6.25
2018-09-24T05:10:49.648Z,6.25
2018-09-24T05:11:58.282Z,6.19
2018-09-24T05:13:06.917Z,6.26
2018-09-24T05:14:15.560Z,6.2
2018-09-24T05:15:24.198Z,6.29
2018-09-24T05:16:32.893Z,6.19
2018-09-24T05:17:41.948Z,6.29
2018-09-24T05:18:50.590Z,6.22
2018-09-24T05:19:59.270Z,6.28
2018-09-24T05:21:08.127Z,6.28
2018-09-24T05:22:16.761Z,6.25
2018-09-24T05:23:25.667Z,6.35
2018-09-24T05:24:34.306Z,6.26
2018-09-24T05:25:43.202Z,6.26
2018-09-24T05:26:52.101Z,6.25
2018-09-24T05:28:01.010Z,6.28
2018-09-24T05:29:09.643Z,6.25
2018-09-24T05:30:18.281Z,6.26
2018-09-24T05:31:26.918Z,6.29
2018-09-24T05:32:35.563Z,6.32
2018-09-24T05:33:44.515Z,6.32
2018-09-24T05:34:53.155Z,6.32
2018-09-24T05:36:01.794Z,6.31
2018-09-24T05:37:10.704Z,6.34
2018-09-24T05:38:19.341Z,6.32
2018-09-24T05:39:27.977Z,6.34
2018-09-24T05:40:36.612Z,6.34
2018-09-24T05:41:45.248Z,6.35
2018-09-24T05:42:54.155Z,6.32
2018-09-24T05:44:03.033Z,6.41
2018-09-24T05:45:11.433Z,6.44
2018-09-24T05:46:20.331Z,6.36
2018-09-24T05:47:28.971Z,6.35
2018-09-24T05:48:37.610Z,6.43
2018-09-24T05:49:46.520Z,6.44
2018-09-24T05:50:55.154Z,6.46
2018-09-24T05:52:03.796Z,6.46
2018-09-24T05:53:12.699Z,6.5
2018-09-24T05:54:21.406Z,6.52
2018-09-24T05:55:30.327Z,6.46
2018-09-24T05:56:38.966Z,6.54
2018-09-24T05:57:47.604Z,6.46
2018-09-24T05:58:56.269Z,6.54
2018-09-24T06:00:05.177Z,6.64
2018-09-24T06:01:14.072Z,6.56
2018-09-24T06:02:22.718Z,6.57
2018-09-24T06:03:31.354Z,6.64
2018-09-24T06:04:40.059Z,6.7
2018-09-24T06:05:48.972Z,6.7
2018-09-24T06:06:57.610Z,6.72
2018-09-24T06:08:06.509Z,6.77
2018-09-24T06:09:15.155Z,6.72
2018-09-24T06:10:23.782Z,6.78
2018-09-24T06:11:32.424Z,6.74
2018-09-24T06:12:41.323Z,6.78
2018-09-24T06:13:49.965Z,6.77
2018-09-24T06:14:58.600Z,6.77
2018-09-24T06:16:07.274Z,6.9
2018-09-24T06:17:15.909Z,6.9
2018-09-24T06:18:24.802Z,7.04
2018-09-24T06:19:33.445Z,7.08
2018-09-24T06:20:42.085Z,7.15
2018-09-24T06:21:50.990Z,7.19
2018-09-24T06:22:59.642Z,7.22
2018-09-24T06:24:08.288Z,7.23
2018-09-24T06:25:16.917Z,7.28
2018-09-24T06:26:25.559Z,7.39
2018-09-24T06:27:34.189Z,7.36
2018-09-24T06:28:43.097Z,7.41
2018-09-24T06:29:51.754Z,7.4
2018-09-24T06:31:00.394Z,7.43
2018-09-24T06:32:09.287Z,7.44
2018-09-24T06:33:17.928Z,7.46
2018-09-24T06:34:26.634Z,7.48
2018-09-24T06:35:35.484Z,7.44
2018-09-24T06:36:44.124Z,7.47
2018-09-24T06:37:52.752Z,7.48
2018-09-24T06:39:01.397Z,7.56
2018-09-24T06:40:10.034Z,7.51
2018-09-24T06:41:19.062Z,7.58
2018-09-24T06:42:27.692Z,7.55
2018-09-24T06:43:36.339Z,7.55
2018-09-24T06:44:44.972Z,7.75
2018-09-24T06:45:53.892Z,7.66
2018-09-24T06:47:02.791Z,7.75
2018-09-24T06:48:11.427Z,7.75
2018-09-24T06:49:20.067Z,7.74
2018-09-24T06:50:28.717Z,7.7
2018-09-24T06:51:37.639Z,7.81
2018-09-24T06:52:46.536Z,7.81
2018-09-24T06:53:55.438Z,7.78
2018-09-24T06:55:04.074Z,7.77
2018-09-24T06:56:12.721Z,7.85
2018-09-24T06:57:21.655Z,7.9
2018-09-24T06:58:30.306Z,7.88
2018-09-24T06:59:39.252Z,7.93
2018-09-24T07:00:47.861Z,7.99
2018-09-24T07:01:56.803Z,8.13
2018-09-24T07:03:05.446Z,8.08
2018-09-24T07:04:14.076Z,8.06
2018-09-24T07:05:22.765Z,8.18
2018-09-24T07:06:31.468Z,8.13
2018-09-24T07:07:40.110Z,8.23
2018-09-24T07:08:48.751Z,8.17
2018-09-24T07:09:57.397Z,8.27
2018-09-24T07:11:06.067Z,8.27
2018-09-24T07:12:14.682Z,8.44
2018-09-24T07:13:23.652Z,8.39
2018-09-24T07:14:32.282Z,8.45
2018-09-24T07:15:40.926Z,8.42
2018-09-24T07:16:49.578Z,8.53
2018-09-24T07:17:58.208Z,8.49
2018-09-24T07:19:06.838Z,8.6
2018-09-24T07:20:15.584Z,8.59
2018-09-24T07:21:24.498Z,8.59
2018-09-24T07:22:33.728Z,8.72
2018-09-24T07:23:42.629Z,8.71
2018-09-24T07:24:51.276Z,8.72
2018-09-24T07:25:59.912Z,8.89
2018-09-24T07:27:08.556Z,8.82
2018-09-24T07:28:17.243Z,8.86
2018-09-24T07:29:25.831Z,8.9
2018-09-24T07:30:34.787Z,8.97
2018-09-24T07:31:43.423Z,9.03
2018-09-24T07:32:52.333Z,9.05
2018-09-24T07:34:00.971Z,9.15
2018-09-24T07:35:09.610Z,9.18
2018-09-24T07:36:18.247Z,9.11
2018-09-24T07:37:26.889Z,9.05
2018-09-24T07:38:35.529Z,9.16
2018-09-24T07:39:44.170Z,9.19
2018-09-24T07:40:52.805Z,9.15
2018-09-24T07:42:01.452Z,9.21
2018-09-24T07:43:10.154Z,9.31
2018-09-24T07:44:19.146Z,9.37
2018-09-24T07:45:27.778Z,9.34
2018-09-24T07:46:36.420Z,9.44
2018-09-24T07:47:45.062Z,9.47
2018-09-24T07:48:53.705Z,9.48
2018-09-24T07:50:02.345Z,9.66
2018-09-24T07:51:11.249Z,9.64
2018-09-24T07:52:20.152Z,9.7
2018-09-24T07:53:28.792Z,9.73
2018-09-24T07:54:37.439Z,9.85
2018-09-24T07:55:46.335Z,9.84
2018-09-24T07:56:54.979Z,9.97
2018-09-24T07:58:03.622Z,10.02
2018-09-24T07:59:12.532Z,10.05
2018-09-24T08:00:21.167Z,9.92
2018-09-24T08:01:29.810Z,10.05
2018-09-24T08:02:38.449Z,10.05
2018-09-24T08:03:47.100Z,10.07
2018-09-24T08:04:55.727Z,10.1
2018-09-24T08:06:04.367Z,10.17
2018-09-24T08:07:13.030Z,10.18
2018-09-24T08:08:21.638Z,10.18
2018-09-24T08:09:30.284Z,10.2
2018-09-24T08:10:38.922Z,10.36
2018-09-24T08:11:47.563Z,10.39
2018-09-24T08:12:56.315Z,10.51
2018-09-24T08:14:04.843Z,10.49
2018-09-24T08:15:13.481Z,10.61
2018-09-24T08:16:22.120Z,10.69
2018-09-24T08:17:31.023Z,10.72
2018-09-24T08:18:39.933Z,10.76
2018-09-24T08:19:48.572Z,10.84
2018-09-24T08:20:57.309Z,10.86
2018-09-24T08:22:05.848Z,10.82
2018-09-24T08:23:14.494Z,10.9
2018-09-24T08:24:23.137Z,10.94
2018-09-24T08:25:31.780Z,10.9
2018-09-24T08:26:40.421Z,10.98
2018-09-24T08:27:49.054Z,10.94
2018-09-24T08:28:57.775Z,11
2018-09-24T08:30:06.343Z,11.05
2018-09-24T08:31:14.994Z,11.1
2018-09-24T08:32:23.628Z,11.15
2018-09-24T08:33:32.536Z,11.3
2018-09-24T08:34:41.173Z,11.31
2018-09-24T08:35:49.821Z,11.38
2018-09-24T08:36:58.453Z,11.43
2018-09-24T08:38:07.427Z,11.45
2018-09-24T08:39:16.019Z,11.48
2018-09-24T08:40:24.667Z,11.53
2018-09-24T08:41:33.570Z,11.45
2018-09-24T08:42:42.203Z,11.43
2018-09-24T08:43:50.836Z,11.48
2018-09-24T08:44:59.475Z,11.52
2018-09-24T08:46:08.389Z,11.58
2018-09-24T08:47:17.025Z,11.53
2018-09-24T08:48:25.673Z,11.67
2018-09-24T08:49:34.339Z,11.68
2018-09-24T08:50:42.956Z,11.77
2018-09-24T08:51:51.608Z,11.73
2018-09-24T08:53:00.252Z,11.73
2018-09-24T08:54:08.885Z,11.83
2018-09-24T08:55:17.800Z,11.93
2018-09-24T08:56:26.439Z,11.89
2018-09-24T08:57:35.081Z,11.85
2018-09-24T08:58:43.715Z,12.08
2018-09-24T08:59:52.358Z,11.95
2018-09-24T09:01:01.005Z,12.05
2018-09-24T09:02:09.646Z,12.07
2018-09-24T09:03:18.292Z,12.05
2018-09-24T09:04:26.922Z,12.03
2018-09-24T09:05:35.569Z,12.17
2018-09-24T09:06:44.205Z,12.15
2018-09-24T09:07:53.190Z,12.15
2018-09-24T09:09:01.840Z,12.18
2018-09-24T09:10:10.753Z,12.17
2018-09-24T09:11:19.389Z,12.21
2018-09-24T09:12:28.041Z,12.2
2018-09-24T09:13:37.064Z,12.14
2018-09-24T09:14:45.744Z,12.28
2018-09-24T09:15:54.397Z,12.28
2018-09-24T09:17:03.323Z,12.4
2018-09-24T09:18:11.962Z,12.37
2018-09-24T09:19:21.124Z,12.4
2018-09-24T09:20:30.034Z,12.39
2018-09-24T09:21:38.673Z,12.43
2018-09-24T09:22:47.304Z,12.36
2018-09-24T09:23:55.976Z,12.54
2018-09-24T09:25:04.588Z,12.36
2018-09-24T09:26:13.237Z,12.35
2018-09-24T09:27:22.129Z,12.43
2018-09-24T09:28:30.775Z,12.4
2018-09-24T09:29:39.671Z,12.39
2018-09-24T09:30:48.346Z,12.4
2018-09-24T09:31:56.977Z,12.5
2018-09-24T09:33:05.883Z,12.5
2018-09-24T09:34:14.525Z,12.48
2018-09-24T09:35:23.588Z,12.57
2018-09-24T09:36:32.490Z,12.61
2018-09-24T09:37:41.127Z,12.76
2018-09-24T09:38:49.764Z,12.72
2018-09-24T09:39:58.404Z,12.78
2018-09-24T09:41:07.071Z,12.75
2018-09-24T09:42:15.691Z,12.87
2018-09-24T09:43:24.337Z,12.83
2018-09-24T09:44:32.970Z,12.95
2018-09-24T09:45:41.620Z,12.9
2018-09-24T09:46:50.289Z,12.83
2018-09-24T09:47:58.908Z,12.93
2018-09-24T09:49:08.065Z,12.98
2018-09-24T09:50:16.715Z,13.01
2018-09-24T09:51:25.356Z,13.06
2018-09-24T09:52:34.000Z,13.16
2018-09-24T09:53:42.702Z,13.13
2018-09-24T09:54:51.279Z,13.23
2018-09-24T09:55:59.922Z,13.19
2018-09-24T09:57:08.832Z,13.2
2018-09-24T09:58:17.482Z,13.19
2018-09-24T09:59:26.377Z,13.12
2018-09-24T10:00:35.290Z,13.16
2018-09-24T10:01:43.922Z,13.06
2018-09-24T10:02:52.573Z,12.91
2018-09-24T10:04:01.207Z,12.94
2018-09-24T10:05:09.852Z,12.87
2018-09-24T10:06:18.490Z,12.86
2018-09-24T10:07:27.141Z,12.83
2018-09-24T10:08:35.772Z,12.84
2018-09-24T10:09:44.422Z,12.78
2018-09-24T10:10:53.061Z,12.83
2018-09-24T10:12:01.713Z,12.9
2018-09-24T10:13:10.617Z,12.98
2018-09-24T10:14:19.253Z,12.95
2018-09-24T10:15:27.891Z,13.16
2018-09-24T10:16:36.796Z,13.17
2018-09-24T10:17:45.443Z,13.26
2018-09-24T10:18:54.390Z,13.46
2018-09-24T10:20:02.985Z,13.5
2018-09-24T10:21:11.623Z,13.54
2018-09-24T10:22:20.539Z,13.75
2018-09-24T10:23:29.181Z,13.76
2018-09-24T10:24:37.822Z,13.85
2018-09-24T10:25:46.459Z,13.98
2018-09-24T10:26:55.378Z,14.04
2018-09-24T10:28:04.280Z,14.13
2018-09-24T10:29:12.923Z,14
2018-09-24T10:30:21.560Z,14.03
2018-09-24T10:31:30.203Z,13.98
2018-09-24T10:32:39.152Z,13.94
2018-09-24T10:33:48.179Z,13.93
2018-09-24T10:34:56.755Z,13.86
2018-09-24T10:36:05.649Z,13.89
2018-09-24T10:37:14.292Z,13.97
2018-09-24T10:38:22.936Z,13.97
2018-09-24T10:39:31.589Z,13.95
2018-09-24T10:40:40.220Z,13.87
2018-09-24T10:41:48.864Z,13.87
2018-09-24T10:42:57.507Z,13.98
2018-09-24T10:44:06.155Z,13.86
2018-09-24T10:45:14.817Z,13.89
2018-09-24T10:46:23.464Z,13.89
2018-09-24T10:47:32.243Z,13.93
2018-09-24T10:48:40.909Z,13.86
2018-09-24T10:49:49.673Z,13.94
2018-09-24T10:50:58.317Z,13.85
2018-09-24T10:52:06.957Z,13.8
2018-09-24T10:53:15.600Z,13.67
2018-09-24T10:54:24.247Z,13.67
2018-09-24T10:55:32.888Z,13.55
2018-09-24T10:56:41.530Z,13.67
2018-09-24T10:57:50.168Z,13.65
2018-09-24T10:58:58.815Z,13.49
2018-09-24T11:00:07.456Z,13.39
2018-09-24T11:01:16.101Z,13.28
2018-09-24T11:02:24.740Z,13.26
2018-09-24T11:03:33.386Z,13.3
2018-09-24T11:04:42.048Z,13.26
2018-09-24T11:05:50.671Z,13.28
2018-09-24T11:06:59.307Z,13.33
2018-09-24T11:08:08.216Z,13.52
2018-09-24T11:09:16.857Z,13.68
2018-09-24T11:10:25.542Z,13.73
2018-09-24T11:11:34.692Z,13.91
2018-09-24T11:12:43.337Z,14.08
2018-09-24T11:13:51.980Z,14.11
2018-09-24T11:15:00.883Z,14.18
2018-09-24T11:16:09.723Z,14.28
2018-09-24T11:17:19.260Z,14.26
2018-09-24T11:18:27.635Z,14.23
2018-09-24T11:19:36.277Z,14.41
2018-09-24T11:20:44.926Z,14.43
2018-09-24T11:21:53.562Z,14.59
2018-09-24T11:23:02.210Z,14.62
2018-09-24T11:24:10.852Z,14.7
2018-09-24T11:25:19.500Z,14.63
2018-09-24T11:27:37.778Z,14.45
2018-09-24T11:28:46.419Z,14.45
2018-09-24T11:29:55.060Z,14.41
2018-09-24T11:31:03.978Z,14.25
2018-09-24T11:32:12.621Z,14.12
2018-09-24T11:33:21.267Z,14.12
2018-09-24T11:34:29.903Z,14.01
2018-09-24T11:35:38.550Z,14
2018-09-24T11:36:47.192Z,13.98
2018-09-24T11:37:55.835Z,13.98
2018-09-24T11:39:04.474Z,14.04
2018-09-24T11:40:13.121Z,14.08
2018-09-24T11:41:21.762Z,14.12
2018-09-24T11:42:30.434Z,14.22
2018-09-24T11:43:39.073Z,14.26
2018-09-24T11:44:47.981Z,14.41
2018-09-24T11:45:56.623Z,14.37
2018-09-24T11:47:06.080Z,14.31
2018-09-24T11:48:14.614Z,14.28
2018-09-24T11:49:23.254Z,14.28
2018-09-24T11:50:31.896Z,14.3
2018-09-24T11:51:40.538Z,14.41
2018-09-24T11:52:49.191Z,14.53
2018-09-24T11:53:57.922Z,14.7
2018-09-24T11:55:06.835Z,14.86
2018-09-24T11:56:15.597Z,14.96
2018-09-24T11:57:24.518Z,14.89
2018-09-24T11:58:33.216Z,15
2018-09-24T11:59:41.933Z,15.07
2018-09-24T12:00:50.579Z,15.12
2018-09-24T12:01:59.259Z,15.15
2018-09-24T12:03:08.210Z,15.15
2018-09-24T12:04:16.852Z,15.18
2018-09-24T12:05:25.496Z,15.19
2018-09-24T12:06:34.412Z,15.14
2018-09-24T12:07:43.060Z,15.17
2018-09-24T12:08:51.704Z,15
2018-09-24T12:10:00.347Z,14.9
2018-09-24T12:11:09.015Z,14.77
2018-09-24T12:12:17.668Z,14.68
2018-09-24T12:13:26.308Z,14.48
2018-09-24T12:14:34.977Z,14.23
2018-09-24T12:15:43.669Z,13.65
2018-09-24T12:16:52.378Z,13.21
2018-09-24T12:18:01.071Z,12.78
2018-09-24T12:19:09.664Z,12.43
2018-09-24T12:20:18.559Z,12.26
2018-09-24T12:21:27.466Z,12.03
2018-09-24T12:22:36.116Z,11.88
2018-09-24T12:23:44.757Z,11.71
2018-09-24T12:24:53.397Z,11.56
2018-09-24T12:26:02.031Z,11.35
2018-09-24T12:27:10.676Z,11.34
2018-09-24T12:28:19.321Z,11.31
2018-09-24T12:29:27.962Z,11.33
2018-09-24T12:30:36.595Z,11.35
2018-09-24T12:31:45.241Z,11.35
2018-09-24T12:32:54.141Z,11.26
2018-09-24T12:34:03.062Z,11.34
2018-09-24T12:35:11.704Z,11.41
2018-09-24T12:36:20.346Z,11.43
2018-09-24T12:37:28.984Z,11.49
2018-09-24T12:38:37.634Z,11.58
2018-09-24T12:39:46.275Z,11.63
2018-09-24T12:40:54.912Z,11.77
2018-09-24T12:42:03.812Z,11.71
2018-09-24T12:43:12.457Z,11.88
2018-09-24T12:44:21.103Z,11.89
2018-09-24T12:45:29.739Z,11.96
2018-09-24T12:46:38.390Z,11.99
2018-09-24T12:47:47.020Z,12.12
2018-09-24T12:48:55.671Z,12.18
2018-09-24T12:50:04.307Z,12.15
2018-09-24T12:51:12.953Z,12.2
2018-09-24T12:52:21.588Z,12.23
2018-09-24T12:53:30.324Z,12.2
2018-09-24T12:54:39.292Z,12.21
2018-09-24T12:55:47.937Z,12.25
2018-09-24T12:56:57.094Z,12.21
2018-09-24T12:58:05.740Z,12.15
2018-09-24T12:59:14.391Z,12.08
2018-09-24T13:00:23.300Z,12
2018-09-24T13:01:31.945Z,11.89
2018-09-24T13:02:40.837Z,11.76
2018-09-24T13:03:49.485Z,11.8
2018-09-24T13:04:58.166Z,11.7
2018-09-24T13:06:06.779Z,11.65
2018-09-24T13:07:15.414Z,11.53
2018-09-24T13:08:24.132Z,11.52
2018-09-24T13:09:33.048Z,11.49
2018-09-24T13:10:41.962Z,11.49
2018-09-24T13:11:50.595Z,11.34
2018-09-24T13:12:59.240Z,11.44
2018-09-24T13:14:07.886Z,11.35
2018-09-24T13:15:16.516Z,11.33
2018-09-24T13:16:25.161Z,11.38
2018-09-24T13:17:33.812Z,11.37
2018-09-24T13:18:42.457Z,11.38
2018-09-24T13:19:51.104Z,11.34
2018-09-24T13:20:59.993Z,11.33
2018-09-24T13:22:08.639Z,11.26
2018-09-24T13:23:17.275Z,11.27
2018-09-24T13:24:26.188Z,11.26
2018-09-24T13:25:34.820Z,11.43
2018-09-24T13:26:43.732Z,11.43
2018-09-24T13:27:52.368Z,11.51
2018-09-24T13:29:01.022Z,11.7
2018-09-24T13:30:09.653Z,11.7
2018-09-24T13:31:18.302Z,11.68
2018-09-24T13:32:26.939Z,11.8
2018-09-24T13:33:35.858Z,11.97
2018-09-24T13:34:44.503Z,11.95
2018-09-24T13:35:53.142Z,12.12
2018-09-24T13:37:01.791Z,12.2
2018-09-24T13:38:10.425Z,12.26
2018-09-24T13:39:19.076Z,12.37
2018-09-24T13:40:27.713Z,12.53
2018-09-24T13:41:36.626Z,12.55
2018-09-24T13:42:45.258Z,12.66
2018-09-24T13:43:53.909Z,12.86
2018-09-24T13:45:02.555Z,13.01
2018-09-24T13:46:11.466Z,13.05
2018-09-24T13:47:20.102Z,13.24
2018-09-24T13:48:28.761Z,13.4
2018-09-24T13:49:37.401Z,13.52
2018-09-24T13:50:46.048Z,13.67
2018-09-24T13:51:54.686Z,13.67
2018-09-24T13:53:03.332Z,13.91
2018-09-24T13:54:11.979Z,14.08
2018-09-24T13:55:20.894Z,14.13
2018-09-24T13:56:29.543Z,14.23
2018-09-24T13:57:38.179Z,14.23
2018-09-24T13:58:46.829Z,14.25
2018-09-24T13:59:55.727Z,14.28
2018-09-24T14:01:04.651Z,14.33
2018-09-24T14:02:13.288Z,14.26
2018-09-24T14:03:21.935Z,14.25
2018-09-24T14:04:30.573Z,14.22
2018-09-24T14:05:39.223Z,14.03
2018-09-24T14:06:47.857Z,13.94
2018-09-24T14:07:56.503Z,13.86
2018-09-24T14:09:05.143Z,13.75
2018-09-24T14:10:13.793Z,13.71
2018-09-24T14:11:22.428Z,13.5
2018-09-24T14:12:31.065Z,13.36
2018-09-24T14:13:39.705Z,13.19
2018-09-24T14:14:48.350Z,12.86
2018-09-24T14:15:56.998Z,12.63
2018-09-24T14:17:06.158Z,12.54
2018-09-24T14:18:14.800Z,12.36
2018-09-24T14:19:23.888Z,12.21
2018-09-24T14:20:32.538Z,12.21
2018-09-24T14:21:41.170Z,12.03
2018-09-24T14:22:49.814Z,11.99
2018-09-24T14:23:58.450Z,11.78
2018-09-24T14:25:07.361Z,11.67
2018-09-24T14:26:16.002Z,11.55
2018-09-24T14:27:26.543Z,11.49
2018-09-24T14:28:35.180Z,11.45
2018-09-24T14:29:43.829Z,11.43
2018-09-24T14:30:52.466Z,11.43
2018-09-24T14:32:01.122Z,11.4
2018-09-24T14:33:09.758Z,11.33
2018-09-24T14:34:18.394Z,11.31
2018-09-24T14:35:27.038Z,11.3
2018-09-24T14:36:35.677Z,11.33
2018-09-24T14:37:44.323Z,11.34
2018-09-24T14:38:52.958Z,11.34
2018-09-24T14:40:01.600Z,11.27
2018-09-24T14:41:10.241Z,11.37
2018-09-24T14:42:18.891Z,11.37
2018-09-24T14:43:27.533Z,11.41
2018-09-24T14:44:36.177Z,11.48
2018-09-24T14:45:44.814Z,11.55
2018-09-24T14:46:53.472Z,11.53
2018-09-24T14:48:02.377Z,11.7
2018-09-24T14:49:11.018Z,11.74
2018-09-24T14:50:19.929Z,11.77
2018-09-24T14:51:28.834Z,11.83
2018-09-24T14:52:37.747Z,11.95
2018-09-24T14:53:46.387Z,11.99
2018-09-24T14:54:55.031Z,12.03
2018-09-24T14:56:03.666Z,12.18
2018-09-24T14:57:12.314Z,12.15
2018-09-24T14:58:20.955Z,12.32
2018-09-24T14:59:29.597Z,12.14
2018-09-24T15:00:38.237Z,12.14
2018-09-24T15:01:47.154Z,12.11
2018-09-24T15:02:56.057Z,12.15
2018-09-24T15:04:04.702Z,12.32
2018-09-24T15:05:13.341Z,12.29